Erie, Kansas
Current Conditions -  °F | °C
As of 12:52 AM on Thursday 23 Oct 2014 (Local Time) from KCNU Reporting Station
Broken Clouds Broken Clouds  
Wind Chill: 62°   Ceiling: 7500
Heat Index: 62°   Visibility: 10mi
Dew Point: 59°   Wind: 7mph
Humidity: 90%   Direction: 150°SSE
Pressure: 30.11"   Gusts: NA
Location:  37.57°N, 95.24°W
Report Text: KCNU 230552Z AUTO 15006KT 10SM FEW046 SCT060 BKN075 17/15 A3011 RMK AO2 SLP187 T01670150 10200 20167 402560122 58001
Loading
Personal Weather Stations






























Interactive Weather Map
Tropical Storm Tracking
New forecast layout! Learn more

10-Day Weather Forecast

Advertisements
Track Severe Weather on mobile